sensor_id;sensor_type;location;lat;lon;timestamp;temperature;humidity
15286;DHT22;7744;52.172;10.668;2023-04-29T00:00:39;11.30;1.00
15286;DHT22;7744;52.172;10.668;2023-04-29T00:03:04;11.30;1.00
15286;DHT22;7744;52.172;10.668;2023-04-29T00:05:30;11.30;1.00
15286;DHT22;7744;52.172;10.668;2023-04-29T00:07:55;11.30;1.00
15286;DHT22;7744;52.172;10.668;2023-04-29T00:10:22;11.30;1.00
15286;DHT22;7744;52.172;10.668;2023-04-29T00:12:47;11.30;1.00
15286;DHT22;7744;52.172;10.668;2023-04-29T00:15:14;11.30;1.00
15286;DHT22;7744;52.172;10.668;2023-04-29T00:17:39;11.80;1.00
15286;DHT22;7744;52.172;10.668;2023-04-29T00:20:05;11.20;1.00
15286;DHT22;7744;52.172;10.668;2023-04-29T00:22:32;11.40;10.40
15286;DHT22;7744;52.172;10.668;2023-04-29T00:24:57;12.20;22.50
15286;DHT22;7744;52.172;10.668;2023-04-29T00:27:24;11.80;1.50
15286;DHT22;7744;52.172;10.668;2023-04-29T00:29:49;12.00;1.00
15286;DHT22;7744;52.172;10.668;2023-04-29T00:32:15;11.90;1.00
15286;DHT22;7744;52.172;10.668;2023-04-29T00:34:40;12.10;1.00
15286;DHT22;7744;52.172;10.668;2023-04-29T00:37:07;11.80;1.00
15286;DHT22;7744;52.172;10.668;2023-04-29T00:39:32;12.20;1.00
15286;DHT22;7744;52.172;10.668;2023-04-29T00:41:58;11.40;1.00
15286;DHT22;7744;52.172;10.668;2023-04-29T00:44:24;11.20;1.00
15286;DHT22;7744;52.172;10.668;2023-04-29T00:46:49;11.70;1.00
15286;DHT22;7744;52.172;10.668;2023-04-29T00:49:15;12.20;1.00
15286;DHT22;7744;52.172;10.668;2023-04-29T00:51:41;12.00;1.00
15286;DHT22;7744;52.172;10.668;2023-04-29T00:54:07;12.30;1.00
15286;DHT22;7744;52.172;10.668;2023-04-29T00:56:34;11.90;1.00
15286;DHT22;7744;52.172;10.668;2023-04-29T00:59:02;12.50;99.90
15286;DHT22;7744;52.172;10.668;2023-04-29T01:01:29;11.70;1.00
15286;DHT22;7744;52.172;10.668;2023-04-29T01:03:56;11.90;99.90
15286;DHT22;7744;52.172;10.668;2023-04-29T01:06:50;11.40;1.00
15286;DHT22;7744;52.172;10.668;2023-04-29T01:12:40;11.40;1.00
15286;DHT22;7744;52.172;10.668;2023-04-29T01:15:21;11.40;1.00
15286;DHT22;7744;52.172;10.668;2023-04-29T01:17:59;11.30;99.90
15286;DHT22;7744;52.172;10.668;2023-04-29T01:20:45;11.00;1.00
15286;DHT22;7744;52.172;10.668;2023-04-29T01:23:11;11.70;99.90
15286;DHT22;7744;52.172;10.668;2023-04-29T01:25:36;11.60;1.00
15286;DHT22;7744;52.172;10.668;2023-04-29T01:31:09;10.80;99.90
15286;DHT22;7744;52.172;10.668;2023-04-29T01:33:58;11.30;99.90
15286;DHT22;7744;52.172;10.668;2023-04-29T01:39:19;11.20;99.90
15286;DHT22;7744;52.172;10.668;2023-04-29T01:42:27;12.10;99.90
15286;DHT22;7744;52.172;10.668;2023-04-29T01:44:54;11.20;99.90
15286;DHT22;7744;52.172;10.668;2023-04-29T01:47:21;11.70;99.90
15286;DHT22;7744;52.172;10.668;2023-04-29T01:49:51;11.20;32.20
15286;DHT22;7744;52.172;10.668;2023-04-29T01:52:16;11.20;1.00
15286;DHT22;7744;52.172;10.668;2023-04-29T01:54:52;11.20;99.90
15286;DHT22;7744;52.172;10.668;2023-04-29T01:57:18;11.20;1.00
15286;DHT22;7744;52.172;10.668;2023-04-29T01:59:47;11.20;1.00
15286;DHT22;7744;52.172;10.668;2023-04-29T02:02:12;11.80;99.90
15286;DHT22;7744;52.172;10.668;2023-04-29T02:04:45;11.20;99.90
15286;DHT22;7744;52.172;10.668;2023-04-29T02:07:11;10.20;99.90
15286;DHT22;7744;52.172;10.668;2023-04-29T02:09:36;12.10;99.90
15286;DHT22;7744;52.172;10.668;2023-04-29T02:12:02;12.10;99.90
15286;DHT22;7744;52.172;10.668;2023-04-29T02:14:29;11.20;99.90
15286;DHT22;7744;52.172;10.668;2023-04-29T02:16:55;11.70;1.00
15286;DHT22;7744;52.172;10.668;2023-04-29T02:19:21;12.10;1.00
15286;DHT22;7744;52.172;10.668;2023-04-29T02:21:47;12.20;1.00
15286;DHT22;7744;52.172;10.668;2023-04-29T02:24:12;12.00;1.00
15286;DHT22;7744;52.172;10.668;2023-04-29T02:26:38;11.90;1.00
15286;DHT22;7744;52.172;10.668;2023-04-29T02:29:04;11.20;99.90
15286;DHT22;7744;52.172;10.668;2023-04-29T02:31:30;11.60;1.00
15286;DHT22;7744;52.172;10.668;2023-04-29T02:33:55;11.60;35.40
15286;DHT22;7744;52.172;10.668;2023-04-29T02:36:21;12.20;1.00
15286;DHT22;7744;52.172;10.668;2023-04-29T02:38:47;11.70;82.60
15286;DHT22;7744;52.172;10.668;2023-04-29T02:41:18;12.00;99.90
15286;DHT22;7744;52.172;10.668;2023-04-29T02:43:44;12.10;1.00
15286;DHT22;7744;52.172;10.668;2023-04-29T02:46:17;12.40;99.90
15286;DHT22;7744;52.172;10.668;2023-04-29T02:48:43;10.20;99.90
15286;DHT22;7744;52.172;10.668;2023-04-29T02:51:12;11.90;1.00
15286;DHT22;7744;52.172;10.668;2023-04-29T02:53:41;12.00;1.00
15286;DHT22;7744;52.172;10.668;2023-04-29T02:56:06;11.20;1.00
15286;DHT22;7744;52.172;10.668;2023-04-29T02:58:32;11.30;1.00
15286;DHT22;7744;52.172;10.668;2023-04-29T03:01:06;10.90;22.90
15286;DHT22;7744;52.172;10.668;2023-04-29T03:03:40;11.60;99.90
15286;DHT22;7744;52.172;10.668;2023-04-29T03:06:08;11.90;1.00
15286;DHT22;7744;52.172;10.668;2023-04-29T03:08:43;10.80;1.00
15286;DHT22;7744;52.172;10.668;2023-04-29T03:11:09;10.90;1.00
15286;DHT22;7744;52.172;10.668;2023-04-29T03:13:34;10.90;99.90
15286;DHT22;7744;52.172;10.668;2023-04-29T03:16:00;11.20;1.00
15286;DHT22;7744;52.172;10.668;2023-04-29T03:18:26;11.50;1.00
15286;DHT22;7744;52.172;10.668;2023-04-29T03:20:54;11.80;96.40
15286;DHT22;7744;52.172;10.668;2023-04-29T03:23:28;11.60;1.00
15286;DHT22;7744;52.172;10.668;2023-04-29T03:25:54;10.90;1.00
15286;DHT22;7744;52.172;10.668;2023-04-29T03:28:20;11.40;99.90
15286;DHT22;7744;52.172;10.668;2023-04-29T03:30:48;12.00;99.90
15286;DHT22;7744;52.172;10.668;2023-04-29T03:33:14;11.00;99.90
15286;DHT22;7744;52.172;10.668;2023-04-29T03:35:45;10.80;99.90
15286;DHT22;7744;52.172;10.668;2023-04-29T03:38:32;10.90;99.90
15286;DHT22;7744;52.172;10.668;2023-04-29T03:41:03;10.70;99.90
15286;DHT22;7744;52.172;10.668;2023-04-29T03:46:20;10.70;99.90
15286;DHT22;7744;52.172;10.668;2023-04-29T03:48:46;11.30;1.00
15286;DHT22;7744;52.172;10.668;2023-04-29T03:51:18;10.70;1.00
15286;DHT22;7744;52.172;10.668;2023-04-29T03:53:50;11.20;1.00
15286;DHT22;7744;52.172;10.668;2023-04-29T03:56:34;11.70;1.00
15286;DHT22;7744;52.172;10.668;2023-04-29T03:59:31;10.40;1.00
15286;DHT22;7744;52.172;10.668;2023-04-29T04:02:23;10.60;1.00
15286;DHT22;7744;52.172;10.668;2023-04-29T04:04:57;10.80;1.00
15286;DHT22;7744;52.172;10.668;2023-04-29T04:10:34;10.90;1.00
15286;DHT22;7744;52.172;10.668;2023-04-29T04:13:00;11.20;1.00
15286;DHT22;7744;52.172;10.668;2023-04-29T04:15:28;11.20;1.00
15286;DHT22;7744;52.172;10.668;2023-04-29T04:17:54;10.50;1.00
15286;DHT22;7744;52.172;10.668;2023-04-29T04:20:19;11.30;1.00
15286;DHT22;7744;52.172;10.668;2023-04-29T04:22:45;10.60;1.00
15286;DHT22;7744;52.172;10.668;2023-04-29T04:25:11;11.10;1.00
15286;DHT22;7744;52.172;10.668;2023-04-29T04:27:36;11.20;1.00
15286;DHT22;7744;52.172;10.668;2023-04-29T04:30:02;11.00;1.00
15286;DHT22;7744;52.172;10.668;2023-04-29T04:32:28;10.60;99.90
15286;DHT22;7744;52.172;10.668;2023-04-29T04:34:54;11.60;99.90
15286;DHT22;7744;52.172;10.668;2023-04-29T04:37:19;10.50;99.90
15286;DHT22;7744;52.172;10.668;2023-04-29T04:39:45;11.10;99.90
15286;DHT22;7744;52.172;10.668;2023-04-29T04:42:17;10.40;1.00
15286;DHT22;7744;52.172;10.668;2023-04-29T04:44:42;10.50;99.90
15286;DHT22;7744;52.172;10.668;2023-04-29T04:47:08;10.40;99.90
15286;DHT22;7744;52.172;10.668;2023-04-29T04:49:33;11.30;99.90
15286;DHT22;7744;52.172;10.668;2023-04-29T04:51:59;11.40;1.00
15286;DHT22;7744;52.172;10.668;2023-04-29T04:54:25;11.40;1.00
15286;DHT22;7744;52.172;10.668;2023-04-29T04:56:51;11.20;1.00
15286;DHT22;7744;52.172;10.668;2023-04-29T04:59:16;10.80;99.90
15286;DHT22;7744;52.172;10.668;2023-04-29T05:01:42;11.10;99.90
15286;DHT22;7744;52.172;10.668;2023-04-29T05:04:07;10.80;99.90
15286;DHT22;7744;52.172;10.668;2023-04-29T05:06:33;11.40;1.00
15286;DHT22;7744;52.172;10.668;2023-04-29T05:08:59;11.20;1.00
15286;DHT22;7744;52.172;10.668;2023-04-29T05:11:24;11.50;99.90
15286;DHT22;7744;52.172;10.668;2023-04-29T05:13:50;10.60;99.90
15286;DHT22;7744;52.172;10.668;2023-04-29T05:16:16;10.60;99.90
15286;DHT22;7744;52.172;10.668;2023-04-29T05:18:42;10.70;99.90
15286;DHT22;7744;52.172;10.668;2023-04-29T05:21:10;10.70;72.40
15286;DHT22;7744;52.172;10.668;2023-04-29T05:23:36;11.20;9.90
15286;DHT22;7744;52.172;10.668;2023-04-29T05:26:01;10.90;99.90
15286;DHT22;7744;52.172;10.668;2023-04-29T05:28:27;10.70;99.90
15286;DHT22;7744;52.172;10.668;2023-04-29T05:30:53;10.50;99.90
15286;DHT22;7744;52.172;10.668;2023-04-29T05:33:18;10.20;1.00
15286;DHT22;7744;52.172;10.668;2023-04-29T05:35:45;10.20;1.00
15286;DHT22;7744;52.172;10.668;2023-04-29T05:38:10;10.20;38.90
15286;DHT22;7744;52.172;10.668;2023-04-29T05:40:36;10.20;99.90
15286;DHT22;7744;52.172;10.668;2023-04-29T05:43:02;10.20;1.00
15286;DHT22;7744;52.172;10.668;2023-04-29T05:45:28;10.20;1.00
15286;DHT22;7744;52.172;10.668;2023-04-29T05:47:53;10.20;1.00
15286;DHT22;7744;52.172;10.668;2023-04-29T05:50:19;10.10;1.00
15286;DHT22;7744;52.172;10.668;2023-04-29T05:52:44;10.00;1.00
15286;DHT22;7744;52.172;10.668;2023-04-29T05:55:10;10.00;61.70
15286;DHT22;7744;52.172;10.668;2023-04-29T05:57:36;10.00;99.90
15286;DHT22;7744;52.172;10.668;2023-04-29T06:00:01;9.90;99.90
15286;DHT22;7744;52.172;10.668;2023-04-29T06:02:28;9.80;1.00
15286;DHT22;7744;52.172;10.668;2023-04-29T06:04:53;9.70;1.00
15286;DHT22;7744;52.172;10.668;2023-04-29T06:07:19;9.70;1.00
15286;DHT22;7744;52.172;10.668;2023-04-29T06:09:45;9.60;1.00
15286;DHT22;7744;52.172;10.668;2023-04-29T06:12:10;10.70;1.00
15286;DHT22;7744;52.172;10.668;2023-04-29T06:14:36;9.70;1.00
15286;DHT22;7744;52.172;10.668;2023-04-29T06:17:06;10.70;1.00
15286;DHT22;7744;52.172;10.668;2023-04-29T06:19:33;9.80;1.00
15286;DHT22;7744;52.172;10.668;2023-04-29T06:22:05;9.80;1.00
15286;DHT22;7744;52.172;10.668;2023-04-29T06:24:37;9.80;1.00
15286;DHT22;7744;52.172;10.668;2023-04-29T06:27:03;9.80;1.00
15286;DHT22;7744;52.172;10.668;2023-04-29T06:29:28;9.80;99.90
15286;DHT22;7744;52.172;10.668;2023-04-29T06:31:54;9.80;99.90
15286;DHT22;7744;52.172;10.668;2023-04-29T06:34:20;9.80;99.90
15286;DHT22;7744;52.172;10.668;2023-04-29T06:36:46;9.80;99.90
15286;DHT22;7744;52.172;10.668;2023-04-29T06:39:14;9.90;1.00
15286;DHT22;7744;52.172;10.668;2023-04-29T06:41:40;9.80;1.00
15286;DHT22;7744;52.172;10.668;2023-04-29T06:44:10;9.90;1.00
15286;DHT22;7744;52.172;10.668;2023-04-29T06:46:37;9.80;99.90
15286;DHT22;7744;52.172;10.668;2023-04-29T06:49:06;9.70;99.90
15286;DHT22;7744;52.172;10.668;2023-04-29T06:51:32;9.70;99.90
15286;DHT22;7744;52.172;10.668;2023-04-29T06:53:57;9.70;99.90
15286;DHT22;7744;52.172;10.668;2023-04-29T06:56:23;9.60;99.90
15286;DHT22;7744;52.172;10.668;2023-04-29T06:58:49;9.70;1.00
15286;DHT22;7744;52.172;10.668;2023-04-29T07:01:14;9.70;99.90
15286;DHT22;7744;52.172;10.668;2023-04-29T07:03:40;9.70;99.90
15286;DHT22;7744;52.172;10.668;2023-04-29T07:06:05;9.70;1.00
15286;DHT22;7744;52.172;10.668;2023-04-29T07:08:31;9.70;1.00
15286;DHT22;7744;52.172;10.668;2023-04-29T07:10:57;9.70;1.00
15286;DHT22;7744;52.172;10.668;2023-04-29T07:13:24;9.60;1.00
15286;DHT22;7744;52.172;10.668;2023-04-29T07:15:50;9.60;1.00
15286;DHT22;7744;52.172;10.668;2023-04-29T07:18:16;10.00;99.90
15286;DHT22;7744;52.172;10.668;2023-04-29T07:20:41;9.60;99.90
15286;DHT22;7744;52.172;10.668;2023-04-29T07:23:08;9.60;1.00
15286;DHT22;7744;52.172;10.668;2023-04-29T07:25:33;9.60;99.90
15286;DHT22;7744;52.172;10.668;2023-04-29T07:28:00;9.60;1.00
15286;DHT22;7744;52.172;10.668;2023-04-29T07:30:26;9.60;48.20
15286;DHT22;7744;52.172;10.668;2023-04-29T07:32:52;9.60;1.00
15286;DHT22;7744;52.172;10.668;2023-04-29T07:35:17;9.60;97.90
15286;DHT22;7744;52.172;10.668;2023-04-29T07:37:43;9.50;1.00
15286;DHT22;7744;52.172;10.668;2023-04-29T07:40:10;9.60;1.00
15286;DHT22;7744;52.172;10.668;2023-04-29T07:42:36;9.60;1.00
15286;DHT22;7744;52.172;10.668;2023-04-29T07:45:01;9.60;91.70
15286;DHT22;7744;52.172;10.668;2023-04-29T07:47:27;9.60;99.90
15286;DHT22;7744;52.172;10.668;2023-04-29T07:49:52;9.70;99.90
15286;DHT22;7744;52.172;10.668;2023-04-29T07:52:18;9.70;1.00
15286;DHT22;7744;52.172;10.668;2023-04-29T07:54:44;9.70;1.00
15286;DHT22;7744;52.172;10.668;2023-04-29T07:57:09;9.90;1.00
15286;DHT22;7744;52.172;10.668;2023-04-29T07:59:35;9.90;1.00
15286;DHT22;7744;52.172;10.668;2023-04-29T08:02:00;10.00;99.90
15286;DHT22;7744;52.172;10.668;2023-04-29T08:04:26;10.00;1.00
15286;DHT22;7744;52.172;10.668;2023-04-29T08:06:52;10.10;95.30
15286;DHT22;7744;52.172;10.668;2023-04-29T08:09:17;10.10;99.90
15286;DHT22;7744;52.172;10.668;2023-04-29T08:11:43;10.00;99.90
15286;DHT22;7744;52.172;10.668;2023-04-29T08:14:10;10.10;99.90
15286;DHT22;7744;52.172;10.668;2023-04-29T08:16:35;10.00;1.00
15286;DHT22;7744;52.172;10.668;2023-04-29T08:19:01;10.10;5.20
15286;DHT22;7744;52.172;10.668;2023-04-29T08:21:27;10.10;1.00
15286;DHT22;7744;52.172;10.668;2023-04-29T08:23:52;10.20;1.00
15286;DHT22;7744;52.172;10.668;2023-04-29T08:26:19;10.40;1.00
15286;DHT22;7744;52.172;10.668;2023-04-29T08:28:45;10.70;1.00
15286;DHT22;7744;52.172;10.668;2023-04-29T08:31:18;11.10;1.00
15286;DHT22;7744;52.172;10.668;2023-04-29T08:33:44;11.60;99.90
15286;DHT22;7744;52.172;10.668;2023-04-29T08:36:09;11.70;99.90
15286;DHT22;7744;52.172;10.668;2023-04-29T08:38:35;11.90;99.90
15286;DHT22;7744;52.172;10.668;2023-04-29T08:41:01;11.80;99.90
15286;DHT22;7744;52.172;10.668;2023-04-29T08:43:27;12.20;99.90
15286;DHT22;7744;52.172;10.668;2023-04-29T08:45:53;12.50;99.90
15286;DHT22;7744;52.172;10.668;2023-04-29T08:48:19;12.00;99.90
15286;DHT22;7744;52.172;10.668;2023-04-29T08:50:45;11.90;99.90
15286;DHT22;7744;52.172;10.668;2023-04-29T08:53:14;11.90;99.90
15286;DHT22;7744;52.172;10.668;2023-04-29T08:55:44;11.80;99.90
15286;DHT22;7744;52.172;10.668;2023-04-29T08:58:10;12.00;99.90
15286;DHT22;7744;52.172;10.668;2023-04-29T09:00:37;11.90;94.80
15286;DHT22;7744;52.172;10.668;2023-04-29T09:05:48;12.30;58.20
15286;DHT22;7744;52.172;10.668;2023-04-29T09:08:15;12.70;29.60
15286;DHT22;7744;52.172;10.668;2023-04-29T09:10:41;13.00;7.30
15286;DHT22;7744;52.172;10.668;2023-04-29T09:13:07;12.90;1.00
15286;DHT22;7744;52.172;10.668;2023-04-29T09:15:36;12.90;1.00
15286;DHT22;7744;52.172;10.668;2023-04-29T09:18:04;12.10;7.70
15286;DHT22;7744;52.172;10.668;2023-04-29T09:20:30;12.20;16.60
15286;DHT22;7744;52.172;10.668;2023-04-29T09:23:01;12.30;1.00
15286;DHT22;7744;52.172;10.668;2023-04-29T09:25:27;12.40;9.00
15286;DHT22;7744;52.172;10.668;2023-04-29T09:27:56;12.90;1.00
15286;DHT22;7744;52.172;10.668;2023-04-29T09:30:25;13.10;1.00
15286;DHT22;7744;52.172;10.668;2023-04-29T09:33:09;13.10;1.00
15286;DHT22;7744;52.172;10.668;2023-04-29T09:36:05;12.80;1.00
15286;DHT22;7744;52.172;10.668;2023-04-29T09:39:40;12.50;1.00
15286;DHT22;7744;52.172;10.668;2023-04-29T09:42:29;12.00;1.00
15286;DHT22;7744;52.172;10.668;2023-04-29T09:44:54;11.70;11.70
15286;DHT22;7744;52.172;10.668;2023-04-29T09:47:29;11.70;12.30
15286;DHT22;7744;52.172;10.668;2023-04-29T09:50:10;12.10;19.70
15286;DHT22;7744;52.172;10.668;2023-04-29T09:52:41;11.90;10.60
15286;DHT22;7744;52.172;10.668;2023-04-29T09:56:07;12.10;12.70
15286;DHT22;7744;52.172;10.668;2023-04-29T09:58:34;12.10;8.50
15286;DHT22;7744;52.172;10.668;2023-04-29T10:01:03;12.80;1.00
15286;DHT22;7744;52.172;10.668;2023-04-29T10:03:34;12.80;1.00
15286;DHT22;7744;52.172;10.668;2023-04-29T10:06:02;12.50;1.00
15286;DHT22;7744;52.172;10.668;2023-04-29T10:08:29;13.10;1.00
15286;DHT22;7744;52.172;10.668;2023-04-29T10:11:07;14.00;1.00
15286;DHT22;7744;52.172;10.668;2023-04-29T10:13:41;14.60;1.00
15286;DHT22;7744;52.172;10.668;2023-04-29T10:16:20;13.80;1.00
15286;DHT22;7744;52.172;10.668;2023-04-29T10:18:52;14.70;1.00
15286;DHT22;7744;52.172;10.668;2023-04-29T10:22:13;15.30;1.00
15286;DHT22;7744;52.172;10.668;2023-04-29T10:25:00;14.40;1.00
15286;DHT22;7744;52.172;10.668;2023-04-29T10:27:35;14.80;1.00
15286;DHT22;7744;52.172;10.668;2023-04-29T10:30:56;14.60;1.00
15286;DHT22;7744;52.172;10.668;2023-04-29T10:33:48;14.70;1.00
15286;DHT22;7744;52.172;10.668;2023-04-29T10:40:11;14.80;1.00
15286;DHT22;7744;52.172;10.668;2023-04-29T10:43:02;14.80;1.00
15286;DHT22;7744;52.172;10.668;2023-04-29T10:49:12;15.20;1.00
15286;DHT22;7744;52.172;10.668;2023-04-29T10:51:59;15.10;1.00
15286;DHT22;7744;52.172;10.668;2023-04-29T10:55:10;14.80;1.00
15286;DHT22;7744;52.172;10.668;2023-04-29T10:57:44;14.30;1.00
15286;DHT22;7744;52.172;10.668;2023-04-29T11:14:10;14.20;1.00
15286;DHT22;7744;52.172;10.668;2023-04-29T11:17:03;13.50;1.00
15286;DHT22;7744;52.172;10.668;2023-04-29T11:23:06;13.40;1.00
15286;DHT22;7744;52.172;10.668;2023-04-29T11:29:54;13.10;1.00
15286;DHT22;7744;52.172;10.668;2023-04-29T11:33:08;13.70;1.00
15286;DHT22;7744;52.172;10.668;2023-04-29T11:35:54;14.10;1.00
15286;DHT22;7744;52.172;10.668;2023-04-29T11:38:27;15.30;1.00
15286;DHT22;7744;52.172;10.668;2023-04-29T11:40:58;15.20;1.00
15286;DHT22;7744;52.172;10.668;2023-04-29T11:43:27;14.10;1.00
15286;DHT22;7744;52.172;10.668;2023-04-29T11:45:55;14.40;1.00
15286;DHT22;7744;52.172;10.668;2023-04-29T11:48:29;14.40;1.00
